createdAt,value
2023-01-26T00:00:57.680Z,53.47
2023-01-26T00:03:24.284Z,59.65
2023-01-26T00:05:50.849Z,46.20
2023-01-26T00:08:17.362Z,35.05
2023-01-26T00:10:44.024Z,41.17
2023-01-26T00:13:11.899Z,36.00
2023-01-26T00:15:38.406Z,28.42
2023-01-26T00:18:04.990Z,29.90
2023-01-26T00:20:31.563Z,30.02
2023-01-26T00:22:58.276Z,26.38
2023-01-26T00:25:24.788Z,28.85
2023-01-26T00:27:51.540Z,23.08
2023-01-26T00:30:19.563Z,25.33
2023-01-26T00:32:46.152Z,29.00
2023-01-26T00:35:12.679Z,27.92
2023-01-26T00:37:41.279Z,27.13
2023-01-26T00:40:09.634Z,27.08
2023-01-26T00:42:36.748Z,25.67
2023-01-26T00:45:03.990Z,23.90
2023-01-26T00:47:31.871Z,25.10
2023-01-26T00:49:58.417Z,25.90
2023-01-26T00:52:28.408Z,29.75
2023-01-26T00:54:57.015Z,28.20
2023-01-26T00:57:23.743Z,26.48
2023-01-26T00:59:50.275Z,27.05
2023-01-26T01:02:16.876Z,22.80
2023-01-26T01:04:44.753Z,24.58
2023-01-26T01:07:11.390Z,28.58
2023-01-26T01:09:37.954Z,25.13
2023-01-26T01:12:05.819Z,23.23
2023-01-26T01:14:32.395Z,24.90
2023-01-26T01:16:58.974Z,23.08
2023-01-26T01:19:25.811Z,23.15
2023-01-26T01:21:53.676Z,21.70
2023-01-26T01:24:20.319Z,28.52
2023-01-26T01:26:47.317Z,24.95
2023-01-26T01:29:14.464Z,28.10
2023-01-26T01:31:41.181Z,26.10
2023-01-26T01:34:07.818Z,26.27
2023-01-26T01:36:34.359Z,27.13
2023-01-26T01:39:02.229Z,27.45
2023-01-26T01:41:29.368Z,29.48
2023-01-26T01:44:12.241Z,30.88
2023-01-26T01:46:40.836Z,28.17
2023-01-26T01:49:15.665Z,31.92
2023-01-26T01:51:45.416Z,29.30
2023-01-26T01:54:16.659Z,32.72
2023-01-26T01:56:50.302Z,33.58
2023-01-26T01:59:18.808Z,30.23
2023-01-26T02:01:46.309Z,31.02
2023-01-26T02:04:13.223Z,34.65
2023-01-26T02:06:46.202Z,27.77
2023-01-26T02:09:15.739Z,30.30
2023-01-26T02:11:44.711Z,28.55
2023-01-26T02:14:14.273Z,35.03
2023-01-26T02:16:40.778Z,34.78
2023-01-26T02:19:15.648Z,29.67
2023-01-26T02:21:45.387Z,32.55
2023-01-26T02:24:22.366Z,35.95
2023-01-26T02:26:51.701Z,31.10
2023-01-26T02:29:18.282Z,36.17
2023-01-26T02:31:45.919Z,37.08
2023-01-26T02:34:12.588Z,34.05
2023-01-26T02:36:39.172Z,40.78
2023-01-26T02:39:22.217Z,38.38
2023-01-26T02:41:51.701Z,38.47
2023-01-26T02:44:20.078Z,40.25
2023-01-26T02:46:46.787Z,42.85
2023-01-26T02:49:15.155Z,36.38
2023-01-26T02:51:41.724Z,46.20
2023-01-26T02:54:08.328Z,43.72
2023-01-26T02:56:34.997Z,41.35
2023-01-26T02:59:02.988Z,43.17
2023-01-26T03:01:32.320Z,46.38
2023-01-26T03:03:59.087Z,46.38
2023-01-26T03:06:25.665Z,44.28
2023-01-26T03:08:52.256Z,46.38
2023-01-26T03:11:22.180Z,41.90
2023-01-26T03:13:48.720Z,48.22
2023-01-26T03:16:18.391Z,46.80
2023-01-26T03:18:44.968Z,41.42
2023-01-26T03:21:13.959Z,45.63
2023-01-26T03:23:40.520Z,51.75
2023-01-26T03:26:09.255Z,46.47
2023-01-26T03:28:36.194Z,49.45
2023-01-26T03:31:06.917Z,48.47
2023-01-26T03:33:34.882Z,58.00
2023-01-26T03:36:01.752Z,48.47
2023-01-26T03:38:29.604Z,54.95
2023-01-26T03:40:58.066Z,46.63
2023-01-26T03:43:24.827Z,46.20
2023-01-26T03:45:51.456Z,50.13
2023-01-26T03:48:20.114Z,52.35
2023-01-26T03:50:48.009Z,51.53
2023-01-26T03:53:17.143Z,49.92
2023-01-26T03:55:43.754Z,54.28
2023-01-26T03:58:12.046Z,53.22
2023-01-26T04:00:38.706Z,47.42
2023-01-26T04:03:05.302Z,42.75
2023-01-26T04:05:32.021Z,50.35
2023-01-26T04:08:06.734Z,56.92
2023-01-26T04:10:33.712Z,50.65
2023-01-26T04:13:03.109Z,48.58
2023-01-26T04:15:30.116Z,47.70
2023-01-26T04:17:56.788Z,54.33
2023-01-26T04:20:23.730Z,57.25
2023-01-26T04:22:50.577Z,55.70
2023-01-26T04:25:20.692Z,52.47
2023-01-26T04:27:47.478Z,61.63
2023-01-26T04:30:16.631Z,49.00
2023-01-26T04:32:43.760Z,53.58
2023-01-26T04:35:10.529Z,48.67
2023-01-26T04:37:37.794Z,44.65
2023-01-26T04:40:05.954Z,49.42
2023-01-26T04:42:35.852Z,52.83
2023-01-26T04:45:04.973Z,57.47
2023-01-26T04:47:31.957Z,55.40
2023-01-26T04:49:58.593Z,52.25
2023-01-26T04:52:25.235Z,57.05
2023-01-26T04:54:51.796Z,52.63
2023-01-26T04:57:18.741Z,54.35
2023-01-26T04:59:50.131Z,56.75
2023-01-26T05:02:18.569Z,56.38
2023-01-26T05:04:45.193Z,50.85
2023-01-26T05:07:12.576Z,51.13
2023-01-26T05:09:39.357Z,62.03
2023-01-26T05:12:28.755Z,60.65
2023-01-26T05:15:22.935Z,62.17
2023-01-26T05:18:00.101Z,46.00
2023-01-26T05:20:39.399Z,57.60
2023-01-26T05:23:15.481Z,49.00
2023-01-26T05:26:00.402Z,55.95
2023-01-26T05:28:28.548Z,54.65
2023-01-26T05:30:56.588Z,63.25
2023-01-26T05:33:23.372Z,49.42
2023-01-26T05:35:50.624Z,50.55
2023-01-26T05:38:17.970Z,51.38
2023-01-26T05:40:45.348Z,53.53
2023-01-26T05:43:12.754Z,45.97
2023-01-26T05:45:56.341Z,44.45
2023-01-26T05:48:24.029Z,54.58
2023-01-26T05:50:52.091Z,41.42
2023-01-26T05:53:21.453Z,48.65
2023-01-26T05:55:48.651Z,45.50
2023-01-26T05:58:17.799Z,43.78
2023-01-26T06:00:44.396Z,50.83
2023-01-26T06:03:20.685Z,56.10
2023-01-26T06:05:52.939Z,46.20
2023-01-26T06:08:27.664Z,43.42
2023-01-26T06:11:12.888Z,51.97
2023-01-26T06:14:00.119Z,42.70
2023-01-26T06:16:28.265Z,45.40
2023-01-26T06:18:57.359Z,42.00
2023-01-26T06:21:24.216Z,39.15
2023-01-26T06:23:50.781Z,39.45
2023-01-26T06:26:17.537Z,39.42
2023-01-26T06:28:44.649Z,44.53
2023-01-26T06:31:11.710Z,36.33
2023-01-26T06:33:40.013Z,43.15
2023-01-26T06:36:12.228Z,38.40
2023-01-26T06:38:40.009Z,35.40
2023-01-26T06:41:08.931Z,35.03
2023-01-26T06:43:36.255Z,31.70
2023-01-26T06:46:04.637Z,25.77
2023-01-26T06:48:33.896Z,32.38
2023-01-26T06:51:05.865Z,29.17
2023-01-26T06:53:38.422Z,32.60
2023-01-26T06:56:37.472Z,28.30
2023-01-26T06:59:22.977Z,32.65
2023-01-26T07:02:16.916Z,27.75
2023-01-26T07:04:43.530Z,29.55
2023-01-26T07:07:10.076Z,30.88
2023-01-26T07:09:38.106Z,27.67
2023-01-26T07:12:04.854Z,29.75
2023-01-26T07:14:31.668Z,29.25
2023-01-26T07:16:58.290Z,25.45
2023-01-26T07:19:24.875Z,34.78
2023-01-26T07:21:51.413Z,31.95
2023-01-26T07:24:18.180Z,25.83
2023-01-26T07:26:46.191Z,29.33
2023-01-26T07:29:12.953Z,28.52
2023-01-26T07:31:39.511Z,28.90
2023-01-26T07:34:06.142Z,28.08
2023-01-26T07:36:32.666Z,29.73
2023-01-26T07:38:59.529Z,27.48
2023-01-26T07:41:26.065Z,38.15
2023-01-26T07:43:54.185Z,31.88
2023-01-26T07:46:20.880Z,33.83
2023-01-26T07:48:47.753Z,33.10
2023-01-26T07:51:14.278Z,31.38
2023-01-26T07:53:41.008Z,31.55
2023-01-26T07:56:09.579Z,31.17
2023-01-26T07:58:36.200Z,31.05
2023-01-26T08:01:09.485Z,30.95
2023-01-26T08:03:36.249Z,37.03
2023-01-26T08:06:03.232Z,29.73
2023-01-26T08:08:29.974Z,31.98
2023-01-26T08:10:57.200Z,31.70
2023-01-26T08:13:34.647Z,33.17
2023-01-26T08:16:03.700Z,31.40
2023-01-26T08:18:31.968Z,33.75
2023-01-26T08:20:59.726Z,40.67
2023-01-26T08:23:26.518Z,30.52
2023-01-26T08:25:53.194Z,28.88
2023-01-26T08:28:21.191Z,32.13
2023-01-26T08:30:48.024Z,27.42
2023-01-26T08:33:14.609Z,27.48
2023-01-26T08:35:42.584Z,29.33
2023-01-26T08:38:09.396Z,25.58
2023-01-26T08:40:35.999Z,27.92
2023-01-26T08:43:03.177Z,27.27
2023-01-26T08:45:33.578Z,32.80
2023-01-26T08:48:00.181Z,30.42
2023-01-26T08:50:26.784Z,33.72
2023-01-26T08:52:56.530Z,26.90
2023-01-26T08:55:23.185Z,30.80
2023-01-26T08:57:52.661Z,27.63
2023-01-26T09:00:19.860Z,32.17
2023-01-26T09:02:46.562Z,28.88
2023-01-26T09:05:13.237Z,34.13
2023-01-26T09:07:39.894Z,34.85
2023-01-26T09:10:09.950Z,29.88
2023-01-26T09:12:36.677Z,32.90
2023-01-26T09:15:03.670Z,33.53
2023-01-26T09:17:30.414Z,40.35
2023-01-26T09:19:56.977Z,31.15
2023-01-26T09:22:23.592Z,33.65
2023-01-26T09:24:50.157Z,31.13
2023-01-26T09:27:18.068Z,33.20
2023-01-26T09:29:44.694Z,30.80
2023-01-26T09:32:11.340Z,35.45
2023-01-26T09:34:38.038Z,34.22
2023-01-26T09:37:06.836Z,36.92
2023-01-26T09:39:33.451Z,35.42
2023-01-26T09:42:13.670Z,31.75
2023-01-26T09:44:48.092Z,39.33
2023-01-26T09:47:21.523Z,38.60
2023-01-26T09:49:51.189Z,43.78
2023-01-26T09:52:26.183Z,36.17
2023-01-26T09:54:54.491Z,39.60
2023-01-26T09:57:28.842Z,34.33
2023-01-26T10:00:00.970Z,35.95
2023-01-26T10:05:13.396Z,45.78
2023-01-26T10:07:42.782Z,41.10
2023-01-26T10:10:15.970Z,36.53
2023-01-26T10:12:43.135Z,42.97
2023-01-26T10:15:23.876Z,41.22
2023-01-26T10:17:51.810Z,44.20
2023-01-26T10:20:27.703Z,41.35
2023-01-26T10:22:59.644Z,44.72
2023-01-26T10:25:33.023Z,44.15
2023-01-26T10:28:00.739Z,37.88
2023-01-26T10:30:28.849Z,44.00
2023-01-26T10:32:56.172Z,41.55
2023-01-26T10:35:25.294Z,40.78
2023-01-26T10:37:52.511Z,44.47
2023-01-26T10:40:19.812Z,45.70
2023-01-26T10:42:56.002Z,40.97
2023-01-26T10:45:29.265Z,43.03
2023-01-26T10:48:04.597Z,43.75
2023-01-26T10:50:31.233Z,42.15
2023-01-26T10:52:59.783Z,45.03
2023-01-26T10:55:27.303Z,45.88
2023-01-26T10:57:53.901Z,46.92
2023-01-26T11:00:24.658Z,44.88
2023-01-26T11:02:55.077Z,48.13
2023-01-26T11:05:23.960Z,44.70
2023-01-26T11:07:51.862Z,53.03
2023-01-26T11:10:22.392Z,47.47
2023-01-26T11:12:49.801Z,56.60
2023-01-26T11:15:18.806Z,51.55
2023-01-26T11:17:51.146Z,46.65
2023-01-26T11:20:50.739Z,51.13
2023-01-26T11:23:29.343Z,48.67
2023-01-26T11:26:33.943Z,48.80
2023-01-26T11:29:16.535Z,53.33
2023-01-26T11:31:53.684Z,49.17
2023-01-26T11:34:30.936Z,47.88
2023-01-26T11:37:17.909Z,54.97
2023-01-26T11:39:55.490Z,50.35
2023-01-26T11:42:27.391Z,52.30
2023-01-26T11:45:06.603Z,53.72
2023-01-26T11:47:46.042Z,56.30
2023-01-26T11:50:24.441Z,50.65
2023-01-26T11:53:14.022Z,52.20
2023-01-26T11:55:52.818Z,45.58
2023-01-26T11:58:30.880Z,55.95
2023-01-26T12:01:00.366Z,60.97
2023-01-26T12:03:35.200Z,47.05
2023-01-26T12:06:07.109Z,46.08
2023-01-26T12:08:41.598Z,51.08
2023-01-26T12:11:13.361Z,44.88
2023-01-26T12:13:44.824Z,55.15
2023-01-26T12:16:18.317Z,46.10
2023-01-26T12:19:09.853Z,49.83
2023-01-26T12:21:40.849Z,42.35
2023-01-26T12:24:39.540Z,49.78
2023-01-26T12:27:09.148Z,46.53
2023-01-26T12:29:42.365Z,52.08
2023-01-26T12:32:12.351Z,47.20
2023-01-26T12:34:39.028Z,43.90
2023-01-26T12:37:29.604Z,46.20
2023-01-26T12:40:08.923Z,50.42
2023-01-26T12:42:44.165Z,51.90
2023-01-26T12:45:18.634Z,48.47
2023-01-26T12:47:51.589Z,46.67
2023-01-26T12:50:26.629Z,41.25
2023-01-26T12:52:57.406Z,43.72
2023-01-26T12:55:31.313Z,42.65
2023-01-26T12:58:01.669Z,50.90
2023-01-26T13:00:32.309Z,39.55
2023-01-26T13:03:03.589Z,42.88
2023-01-26T13:05:32.177Z,44.13
2023-01-26T13:08:19.296Z,47.20
2023-01-26T13:10:49.343Z,49.50
2023-01-26T13:13:31.242Z,44.92
2023-01-26T13:16:32.557Z,42.60
2023-01-26T13:19:00.381Z,51.05
2023-01-26T13:21:27.145Z,42.97
2023-01-26T13:23:54.066Z,41.53
2023-01-26T13:26:28.545Z,43.35
2023-01-26T13:29:29.477Z,43.53
2023-01-26T13:31:57.687Z,42.95
2023-01-26T13:34:28.325Z,41.75
2023-01-26T13:37:00.441Z,41.67
2023-01-26T13:39:30.898Z,39.40
2023-01-26T13:41:58.793Z,42.60
2023-01-26T13:44:36.881Z,37.55
2023-01-26T13:47:08.911Z,38.03
2023-01-26T13:52:16.071Z,35.55
2023-01-26T13:54:44.027Z,33.80
2023-01-26T13:57:19.835Z,38.83
2023-01-26T13:59:50.366Z,34.92
2023-01-26T14:02:25.886Z,38.45
2023-01-26T14:04:54.229Z,30.45
2023-01-26T14:07:24.923Z,41.78
2023-01-26T14:09:53.462Z,42.15
2023-01-26T14:12:23.330Z,29.05
2023-01-26T14:14:52.505Z,32.40
2023-01-26T14:17:27.013Z,31.05
2023-01-26T14:19:54.004Z,39.63
2023-01-26T14:22:22.287Z,33.15
2023-01-26T14:24:51.015Z,39.47
2023-01-26T14:27:40.524Z,39.08
2023-01-26T14:30:21.977Z,43.58
2023-01-26T14:32:49.224Z,38.33
2023-01-26T14:35:21.741Z,38.33
2023-01-26T14:37:48.391Z,53.05
2023-01-26T14:40:23.427Z,39.22
2023-01-26T14:42:53.105Z,36.67
2023-01-26T14:45:28.604Z,31.60
2023-01-26T14:47:55.770Z,31.67
2023-01-26T14:50:26.276Z,32.53
2023-01-26T14:52:53.035Z,30.92
2023-01-26T14:55:25.842Z,34.78
2023-01-26T14:57:54.209Z,32.78
2023-01-26T15:00:25.615Z,36.08
2023-01-26T15:02:54.557Z,30.45
2023-01-26T15:05:24.371Z,29.70
2023-01-26T15:07:55.382Z,31.42
2023-01-26T15:10:29.944Z,27.75
2023-01-26T15:13:00.569Z,29.23
2023-01-26T15:15:29.201Z,32.20
2023-01-26T15:18:16.040Z,28.52
2023-01-26T15:20:44.848Z,30.50
2023-01-26T15:23:30.805Z,29.95
2023-01-26T15:26:05.256Z,30.58
2023-01-26T15:28:34.276Z,29.15
2023-01-26T15:31:01.592Z,27.83
2023-01-26T15:33:53.340Z,31.73
2023-01-26T15:36:34.634Z,30.70
2023-01-26T15:39:09.872Z,30.60
2023-01-26T15:41:36.484Z,31.15
2023-01-26T15:44:04.872Z,30.17
2023-01-26T15:46:31.592Z,35.20
2023-01-26T15:48:58.147Z,32.08
2023-01-26T15:51:24.743Z,31.40
2023-01-26T15:53:51.303Z,29.90
2023-01-26T15:56:17.927Z,27.02
2023-01-26T15:58:44.444Z,34.20
2023-01-26T16:01:20.732Z,29.98
2023-01-26T16:03:47.591Z,29.20
2023-01-26T16:06:21.055Z,28.60
2023-01-26T16:08:47.691Z,27.20
2023-01-26T16:11:14.468Z,33.63
2023-01-26T16:13:41.189Z,31.65
2023-01-26T16:16:09.828Z,35.72
2023-01-26T16:18:38.055Z,34.38
2023-01-26T16:21:16.242Z,35.33
2023-01-26T16:23:43.214Z,27.90
2023-01-26T16:26:11.401Z,30.40
2023-01-26T16:28:38.073Z,27.15
2023-01-26T16:31:11.802Z,30.20
2023-01-26T16:33:40.053Z,29.17
2023-01-26T16:36:09.055Z,31.77
2023-01-26T16:38:35.666Z,30.70
2023-01-26T16:41:02.394Z,34.33
2023-01-26T16:43:29.005Z,26.25
2023-01-26T16:45:55.828Z,29.02
2023-01-26T16:48:22.928Z,30.25
2023-01-26T16:50:53.373Z,26.15
2023-01-26T16:53:25.418Z,28.48
2023-01-26T16:58:19.373Z,30.05
2023-01-26T17:00:46.102Z,32.60
2023-01-26T17:03:12.684Z,34.00
2023-01-26T17:05:40.023Z,28.52
2023-01-26T17:08:08.539Z,25.55
2023-01-26T17:10:35.637Z,26.70
2023-01-26T17:13:02.643Z,25.25
2023-01-26T17:15:29.375Z,25.98
2023-01-26T17:17:56.760Z,24.73
2023-01-26T17:20:23.795Z,27.67
2023-01-26T17:22:50.754Z,23.88
2023-01-26T17:25:19.253Z,25.73
2023-01-26T17:27:46.282Z,32.47
2023-01-26T17:30:13.443Z,32.25
2023-01-26T17:32:41.661Z,35.72
2023-01-26T17:35:09.179Z,26.88
2023-01-26T17:37:35.899Z,24.88
2023-01-26T17:40:02.495Z,24.13
2023-01-26T17:42:30.337Z,26.15
2023-01-26T17:44:56.913Z,22.73
2023-01-26T17:47:23.599Z,20.42
2023-01-26T17:49:50.272Z,23.83
2023-01-26T17:52:16.878Z,31.38
2023-01-26T17:54:43.435Z,23.85
2023-01-26T17:57:09.937Z,26.63
2023-01-26T17:59:38.012Z,26.67
2023-01-26T18:02:04.540Z,23.27
2023-01-26T18:04:31.578Z,22.00
2023-01-26T18:06:58.359Z,21.77
2023-01-26T18:09:25.131Z,21.75
2023-01-26T18:11:51.620Z,21.95
2023-01-26T18:14:18.205Z,25.58
2023-01-26T18:16:46.162Z,23.90
2023-01-26T18:19:12.838Z,28.95
2023-01-26T18:21:39.391Z,24.10
2023-01-26T18:24:07.057Z,23.58
2023-01-26T18:26:36.236Z,26.90
2023-01-26T18:29:04.777Z,27.73
2023-01-26T18:31:33.299Z,23.30
2023-01-26T18:34:02.480Z,22.70
2023-01-26T18:36:29.659Z,22.70
2023-01-26T18:38:58.096Z,24.60
2023-01-26T18:41:26.014Z,22.65
2023-01-26T18:43:54.645Z,23.83
2023-01-26T18:46:22.259Z,23.00
2023-01-26T18:48:49.215Z,25.35
2023-01-26T18:51:17.216Z,23.02
2023-01-26T18:53:43.837Z,25.52
2023-01-26T18:56:12.134Z,22.77
2023-01-26T18:58:39.996Z,21.17
2023-01-26T19:01:10.250Z,18.52
2023-01-26T19:03:37.375Z,24.00
2023-01-26T19:06:05.284Z,28.92
2023-01-26T19:08:33.666Z,21.75
2023-01-26T19:11:03.951Z,22.17
2023-01-26T19:13:30.628Z,24.42
2023-01-26T19:15:57.394Z,35.92
2023-01-26T19:18:24.033Z,34.67
2023-01-26T19:20:57.855Z,28.55
2023-01-26T19:23:24.943Z,28.48
2023-01-26T19:25:52.873Z,31.48
2023-01-26T19:28:19.666Z,32.58
2023-01-26T19:30:46.386Z,27.60
2023-01-26T19:33:12.973Z,34.40
2023-01-26T19:35:39.880Z,31.10
2023-01-26T19:38:06.768Z,26.23
2023-01-26T19:40:33.832Z,28.52
2023-01-26T19:43:01.752Z,26.17
2023-01-26T19:45:28.251Z,19.25
2023-01-26T19:47:54.903Z,22.77
2023-01-26T19:50:21.444Z,28.08
2023-01-26T19:52:48.062Z,30.52
2023-01-26T19:55:14.931Z,26.75
2023-01-26T19:57:41.944Z,24.13
2023-01-26T20:00:11.150Z,24.70
2023-01-26T20:02:40.403Z,26.83
2023-01-26T20:05:07.714Z,29.52
2023-01-26T20:07:34.374Z,33.95
2023-01-26T20:10:00.922Z,29.45
2023-01-26T20:12:27.542Z,29.95
2023-01-26T20:14:54.027Z,25.90
2023-01-26T20:17:21.971Z,28.88
2023-01-26T20:19:48.491Z,25.23
2023-01-26T20:22:15.134Z,25.23
2023-01-26T20:24:42.101Z,34.83
2023-01-26T20:27:09.159Z,32.65
2023-01-26T20:29:35.847Z,27.15
2023-01-26T20:32:02.534Z,30.60
2023-01-26T20:34:30.515Z,21.92
2023-01-26T20:36:57.199Z,25.63
2023-01-26T20:39:24.082Z,22.38
2023-01-26T20:41:51.088Z,25.83
2023-01-26T20:44:17.609Z,25.75
2023-01-26T20:46:44.208Z,19.45
2023-01-26T20:49:13.736Z,25.27
2023-01-26T20:51:43.073Z,26.52
2023-01-26T20:54:13.051Z,28.38
2023-01-26T20:56:39.600Z,26.67
2023-01-26T20:59:07.148Z,24.13
2023-01-26T21:01:34.613Z,32.03
2023-01-26T21:04:01.543Z,23.17
2023-01-26T21:06:28.926Z,24.60
2023-01-26T21:08:58.838Z,23.75
2023-01-26T21:11:27.820Z,19.17
2023-01-26T21:13:55.095Z,22.95
2023-01-26T21:16:21.839Z,21.50
2023-01-26T21:18:48.473Z,20.58
2023-01-26T21:21:16.184Z,20.70
2023-01-26T21:23:43.031Z,21.45
2023-01-26T21:26:12.868Z,26.83
2023-01-26T21:28:39.755Z,21.15
2023-01-26T21:31:08.710Z,28.98
2023-01-26T21:33:37.759Z,33.70
2023-01-26T21:36:06.269Z,22.10
2023-01-26T21:38:34.323Z,29.52
2023-01-26T21:41:02.227Z,30.10
2023-01-26T21:43:30.589Z,23.50
2023-01-26T21:45:57.826Z,25.35
2023-01-26T21:48:25.175Z,22.00
2023-01-26T21:50:56.036Z,27.02
2023-01-26T21:53:22.767Z,30.50
2023-01-26T21:55:49.400Z,22.08
2023-01-26T21:58:15.984Z,24.95
2023-01-26T22:00:43.902Z,25.90
2023-01-26T22:03:10.578Z,23.65
2023-01-26T22:05:37.169Z,28.20
2023-01-26T22:08:04.067Z,24.10
2023-01-26T22:10:30.705Z,26.67
2023-01-26T22:12:57.496Z,27.30
2023-01-26T22:15:24.030Z,23.25
2023-01-26T22:17:52.074Z,27.63
2023-01-26T22:20:18.669Z,28.75
2023-01-26T22:22:45.293Z,25.83
2023-01-26T22:25:11.820Z,25.05
2023-01-26T22:27:39.521Z,23.45
2023-01-26T22:30:07.188Z,25.63
2023-01-26T22:32:33.878Z,27.48
2023-01-26T22:35:01.747Z,26.63
2023-01-26T22:37:28.306Z,22.58
2023-01-26T22:39:54.853Z,24.63
2023-01-26T22:42:21.562Z,21.92
2023-01-26T22:44:48.090Z,24.65
2023-01-26T22:47:14.707Z,24.02
2023-01-26T22:49:41.230Z,23.85
2023-01-26T22:52:09.209Z,26.88
2023-01-26T22:54:35.780Z,26.02
2023-01-26T22:57:02.376Z,26.95
2023-01-26T22:59:28.910Z,23.17
2023-01-26T23:01:55.562Z,22.98
2023-01-26T23:04:22.136Z,21.55
2023-01-26T23:06:48.772Z,24.25
2023-01-26T23:09:16.680Z,29.35
2023-01-26T23:11:43.321Z,23.50
2023-01-26T23:14:09.839Z,26.33
2023-01-26T23:16:36.914Z,24.13
2023-01-26T23:19:03.489Z,21.17
2023-01-26T23:21:30.117Z,23.08
2023-01-26T23:23:56.785Z,22.45
2023-01-26T23:26:25.166Z,21.02
2023-01-26T23:28:51.734Z,22.60
2023-01-26T23:31:19.446Z,20.80
2023-01-26T23:33:46.650Z,22.77
2023-01-26T23:36:14.951Z,22.27
2023-01-26T23:38:41.849Z,24.95
2023-01-26T23:41:08.522Z,25.27
2023-01-26T23:43:36.459Z,20.13
2023-01-26T23:46:03.802Z,28.50
2023-01-26T23:48:30.926Z,26.42
2023-01-26T23:50:59.281Z,26.33
2023-01-26T23:53:26.751Z,29.50
2023-01-26T23:55:53.458Z,26.05
2023-01-26T23:58:20.369Z,22.35
